Terminal Aerodrome Forecast
Issued by NWS Jackson, MS

Home | Current Version | Previous Version | Text Only | Print | Product List | Glossary On
Versions: 1 2 3 4 5 6 7 8 9 10 11 12 13 14 15 16 17 18 19
000
FTUS44 KJAN 031700
TAFGLH
TAF
KGLH 031720Z 0318/0418 17005KT 1/4SM FG VV002
     FM031900 17006KT 1SM BR OVC003
     FM032100 17010KT 3SM BR OVC005
     FM040000 19007KT 2SM BR OVC003
     FM041000 23010KT 4SM BR VCSH OVC007=

USA.gov is the U.S. government's official web portal to all federal, state and local government web resources and services.